Time;durP1;ratioP1;P1;durP2;ratioP2;P2;SDS_P1;SDS_P2;PMS_P1;PMS_P2;Temp;Humidity;BMP_temperature;BMP_pressure;BME280_temperature;BME280_humidity;BME280_pressure;Samples;Min_cycle;Max_cycle;Signal;HPM_P1;HPM_P2
2022/05/17 00:02:25;;;;;;;1999.90;999.90;;;17.00;99.90;;;;;;4991451;28;20420;-69
2022/05/17 00:04:50;;;;;;;1999.90;999.90;;;17.10;99.90;;;;;;4991116;28;20253;-69
2022/05/17 00:07:17;;;;;;;1999.90;999.90;;;17.10;99.90;;;;;;4991401;28;20693;-69
2022/05/17 00:09:43;;;;;;;1999.90;999.90;;;16.90;99.90;;;;;;4991301;28;20185;-69
2022/05/17 00:12:09;;;;;;;1999.90;999.90;;;16.80;99.90;;;;;;4991502;28;20753;-69
2022/05/17 00:14:35;;;;;;;1999.90;999.90;;;16.80;99.90;;;;;;4990966;28;20667;-69
2022/05/17 00:17:02;;;;;;;1999.90;999.90;;;16.80;99.90;;;;;;4991124;28;20654;-69
2022/05/17 00:19:29;;;;;;;1999.90;999.90;;;16.70;99.90;;;;;;4991289;28;20422;-69
2022/05/17 00:21:55;;;;;;;1999.90;999.90;;;16.70;99.90;;;;;;4991164;28;20909;-69
2022/05/17 00:24:23;;;;;;;1999.90;999.90;;;16.60;99.90;;;;;;4990771;28;20413;-68
2022/05/17 00:26:49;;;;;;;1999.90;999.90;;;16.50;99.90;;;;;;4990889;28;20455;-69
2022/05/17 00:29:15;;;;;;;1999.90;999.90;;;16.40;99.90;;;;;;4990970;28;20479;-69
2022/05/17 00:31:41;;;;;;;1999.90;999.90;;;16.30;99.90;;;;;;4991056;28;20404;-69
2022/05/17 00:34:07;;;;;;;1999.90;999.90;;;16.30;99.90;;;;;;4990638;28;20822;-69
2022/05/17 00:36:34;;;;;;;1999.90;999.90;;;16.20;99.90;;;;;;4990852;28;20544;-69
2022/05/17 00:39:00;;;;;;;1999.90;999.90;;;16.20;99.90;;;;;;4990755;28;20411;-69
2022/05/17 00:41:26;;;;;;;1999.90;999.90;;;16.10;99.90;;;;;;4990919;28;20410;-69
2022/05/17 00:46:42;;;;;;;1999.90;999.90;;;15.90;99.90;;;;;;4990633;28;20461;-69
2022/05/17 00:49:13;;;;;;;1999.90;999.90;;;15.90;99.90;;;;;;4990729;28;20474;-69
2022/05/17 00:51:41;;;;;;;1999.90;999.90;;;15.80;99.90;;;;;;4990809;28;20405;-69
2022/05/17 00:54:09;;;;;;;1999.90;999.90;;;15.70;99.90;;;;;;4990276;28;20407;-69
2022/05/17 00:56:40;;;;;;;1999.90;999.90;;;15.60;99.90;;;;;;4990013;28;20432;-69
2022/05/17 00:59:07;;;;;;;1999.90;999.90;;;15.60;99.90;;;;;;4990637;28;20408;-69
2022/05/17 01:01:33;;;;;;;1999.90;999.90;;;15.50;99.90;;;;;;4990775;28;20409;-69
2022/05/17 01:04:10;;;;;;;1999.90;999.90;;;15.30;99.90;;;;;;4990349;28;20417;-69
2022/05/17 01:06:42;;;;;;;1999.90;999.90;;;15.20;99.90;;;;;;4990305;28;20448;-69
2022/05/17 01:09:09;;;;;;;1999.90;999.90;;;15.10;99.90;;;;;;4990519;28;20393;-69
2022/05/17 01:11:34;;;;;;;1999.90;999.90;;;14.90;99.90;;;;;;4990424;28;20961;-69
2022/05/17 01:16:45;;;;;;;1999.90;999.90;;;14.90;99.90;;;;;;4990566;28;20297;-69
2022/05/17 01:19:12;;;;;;;1999.90;999.90;;;14.80;99.90;;;;;;4990312;28;20488;-69
2022/05/17 01:21:38;;;;;;;1999.90;999.90;;;14.70;99.90;;;;;;4990150;28;20405;-69
2022/05/17 01:24:04;;;;;;;1999.90;999.90;;;14.70;99.90;;;;;;4989783;28;20409;-69
2022/05/17 01:26:33;;;;;;;1999.90;999.90;;;14.70;99.90;;;;;;4990213;28;20448;-69
2022/05/17 01:28:59;;;;;;;1999.90;999.90;;;14.70;99.90;;;;;;4990318;28;20769;-69
2022/05/17 01:31:27;;;;;;;1999.90;999.90;;;14.70;99.90;;;;;;4990260;28;20496;-69
2022/05/17 01:33:53;;;;;;;1999.90;999.90;;;14.80;99.90;;;;;;4990158;28;20255;-69
2022/05/17 01:36:22;;;;;;;1999.90;999.90;;;14.80;99.90;;;;;;4989850;28;20478;-69
2022/05/17 01:38:51;;;;;;;1999.90;999.90;;;14.70;99.90;;;;;;4972618;28;20205;-69
2022/05/17 01:41:17;;;;;;;1999.90;999.90;;;14.70;99.90;;;;;;4990222;28;20407;-69
2022/05/17 01:43:43;;;;;;;1999.90;999.90;;;14.70;99.90;;;;;;4990066;28;20414;-69
2022/05/17 01:46:10;;;;;;;1999.90;999.90;;;14.70;99.90;;;;;;4989477;28;20427;-69
2022/05/17 01:48:36;;;;;;;1999.90;999.90;;;14.80;99.90;;;;;;4990160;28;20267;-69
2022/05/17 01:51:04;;;;;;;1999.90;999.90;;;14.80;99.90;;;;;;4989923;28;20430;-69
2022/05/17 01:53:29;;;;;;;1999.90;999.90;;;14.90;99.90;;;;;;4989818;28;20412;-69
2022/05/17 01:55:55;;;;;;;1999.90;999.90;;;14.90;99.90;;;;;;4989569;28;20424;-69
2022/05/17 01:58:21;;;;;;;1999.90;999.90;;;14.80;99.90;;;;;;4989861;28;20296;-69
2022/05/17 02:00:47;;;;;;;1999.90;999.90;;;14.80;99.90;;;;;;4989611;28;20187;-69
2022/05/17 02:03:13;;;;;;;1999.90;999.90;;;14.80;99.90;;;;;;4989697;28;20413;-69
2022/05/17 02:05:38;;;;;;;1999.90;999.90;;;14.70;99.90;;;;;;4989370;28;20175;-69
2022/05/17 02:08:04;;;;;;;1999.90;999.90;;;14.60;99.90;;;;;;4991290;28;20839;-69
2022/05/17 02:10:30;;;;;;;1999.90;999.90;;;14.50;99.90;;;;;;4993200;28;20198;-69
2022/05/17 02:12:57;;;;;;;1999.90;999.90;;;14.50;99.90;;;;;;4993047;28;20406;-69
2022/05/17 02:15:23;;;;;;;1999.90;999.90;;;14.40;99.90;;;;;;4992616;28;20182;-69
2022/05/17 02:17:49;;;;;;;1999.90;999.90;;;14.40;99.90;;;;;;4993073;28;20418;-69
2022/05/17 02:20:15;;;;;;;1999.90;999.90;;;14.30;99.90;;;;;;4993095;28;20411;-69
2022/05/17 02:22:41;;;;;;;1999.90;999.90;;;14.30;99.90;;;;;;4992971;28;20422;-68
2022/05/17 02:25:08;;;;;;;1999.90;999.90;;;14.30;99.90;;;;;;4992680;28;20929;-69
2022/05/17 02:27:34;;;;;;;1999.90;999.90;;;14.30;99.90;;;;;;4992764;28;20207;-69
2022/05/17 02:29:59;;;;;;;1999.90;999.90;;;14.20;99.90;;;;;;4992776;28;20412;-69
2022/05/17 02:32:25;;;;;;;1999.90;999.90;;;14.20;99.90;;;;;;4992855;28;20177;-69
2022/05/17 02:34:51;;;;;;;1999.90;999.90;;;14.20;99.90;;;;;;4992919;28;20175;-69
2022/05/17 02:37:17;;;;;;;1999.90;999.90;;;14.10;99.90;;;;;;4992765;28;20978;-69
2022/05/17 02:39:45;;;;;;;1999.90;999.90;;;14.10;99.90;;;;;;4992629;28;20168;-69
2022/05/17 02:42:11;;;;;;;1999.90;999.90;;;14.10;99.90;;;;;;4992689;28;20220;-69
2022/05/17 02:44:37;;;;;;;1999.90;999.90;;;14.10;99.90;;;;;;4992250;28;20413;-69
2022/05/17 02:47:04;;;;;;;1999.90;999.90;;;14.00;99.90;;;;;;4992562;28;20465;-69
2022/05/17 02:49:29;;;;;;;1999.90;999.90;;;14.00;99.90;;;;;;4992444;28;20432;-69
2022/05/17 02:51:55;;;;;;;1999.90;999.90;;;14.10;99.90;;;;;;4992399;28;20419;-69
2022/05/17 02:54:21;;;;;;;1999.90;999.90;;;14.10;99.90;;;;;;4992118;28;20172;-69
2022/05/17 02:56:47;;;;;;;1999.90;999.90;;;14.00;99.90;;;;;;4992406;28;20186;-69
2022/05/17 02:59:17;;;;;;;1999.90;999.90;;;13.90;99.90;;;;;;4975194;28;20463;-69
2022/05/17 03:01:43;;;;;;;1999.90;999.90;;;13.90;99.90;;;;;;4992590;28;20188;-69
2022/05/17 03:04:09;;;;;;;1999.90;999.90;;;13.90;99.90;;;;;;4992139;28;20415;-69
2022/05/17 03:06:35;;;;;;;1999.90;999.90;;;13.90;99.90;;;;;;4992692;28;20231;-71
2022/05/17 03:09:00;;;;;;;1999.90;999.90;;;13.90;99.90;;;;;;4992336;28;20262;-70
2022/05/17 03:11:26;;;;;;;1999.90;999.90;;;13.90;99.90;;;;;;4992247;28;20207;-70
2022/05/17 03:13:51;;;;;;;1999.90;999.90;;;13.90;99.90;;;;;;4992136;28;20840;-70
2022/05/17 03:16:17;;;;;;;1999.90;999.90;;;14.00;99.90;;;;;;4991699;28;20199;-70
2022/05/17 03:18:43;;;;;;;1999.90;999.90;;;14.00;99.90;;;;;;4992003;28;20174;-70
2022/05/17 03:21:09;;;;;;;1999.90;999.90;;;14.00;99.90;;;;;;4992273;28;20427;-70
2022/05/17 03:23:34;;;;;;;1999.90;999.90;;;14.00;99.90;;;;;;4992059;28;20205;-70
2022/05/17 03:26:00;;;;;;;1999.90;999.90;;;14.00;99.90;;;;;;4991773;28;20198;-70
2022/05/17 03:28:25;;;;;;;1999.90;999.90;;;14.10;99.90;;;;;;4991904;28;20200;-70
2022/05/17 03:30:51;;;;;;;1999.90;999.90;;;14.10;99.90;;;;;;4992097;28;20556;-70
2022/05/17 03:33:17;;;;;;;1999.90;999.90;;;14.20;99.90;;;;;;4991968;28;20167;-70
2022/05/17 03:35:43;;;;;;;1999.90;999.90;;;14.10;99.90;;;;;;4991549;28;20195;-70
2022/05/17 03:38:08;;;;;;;1999.90;999.90;;;14.20;99.90;;;;;;4991865;28;20232;-70
2022/05/17 03:40:34;;;;;;;1999.90;999.90;;;14.20;99.90;;;;;;4992072;28;20416;-70
2022/05/17 03:43:00;;;;;;;1999.90;999.90;;;14.20;99.90;;;;;;4991664;28;20174;-69
2022/05/17 03:45:25;;;;;;;1999.90;999.90;;;14.30;99.90;;;;;;4991254;28;20643;-69
2022/05/17 03:47:51;;;;;;;1999.90;999.90;;;14.40;99.90;;;;;;4991685;28;20214;-69
2022/05/17 03:50:18;;;;;;;1999.90;999.90;;;14.30;99.90;;;;;;4991522;28;20181;-69
2022/05/17 03:52:44;;;;;;;1999.90;999.90;;;14.40;99.90;;;;;;4991591;28;20409;-69
2022/05/17 03:55:10;;;;;;;1999.90;999.90;;;14.40;99.90;;;;;;4991188;28;20500;-69
2022/05/17 03:57:36;;;;;;;1999.90;999.90;;;14.40;99.90;;;;;;4991338;28;20428;-69
2022/05/17 04:00:06;;;;;;;1999.90;999.90;;;14.50;99.90;;;;;;4991595;28;20403;-69
2022/05/17 04:02:34;;;;;;;1999.90;999.90;;;14.50;99.90;;;;;;4974433;28;20791;-69
2022/05/17 04:05:00;;;;;;;1999.90;999.90;;;14.50;99.90;;;;;;4990928;28;20407;-69
2022/05/17 04:07:25;;;;;;;1999.90;999.90;;;14.70;99.90;;;;;;4991108;28;20472;-69
2022/05/17 04:09:53;;;;;;;1999.90;999.90;;;14.80;99.90;;;;;;4991244;28;20221;-69
2022/05/17 04:12:19;;;;;;;1999.90;999.90;;;14.80;99.90;;;;;;4991402;28;20175;-69
2022/05/17 04:14:45;;;;;;;1999.90;999.90;;;14.80;99.90;;;;;;4990861;28;20527;-70
2022/05/17 04:17:10;;;;;;;1999.90;999.90;;;14.90;99.90;;;;;;4991025;28;20951;-70
2022/05/17 04:19:37;;;;;;;1999.90;999.90;;;15.00;99.90;;;;;;4991158;28;20405;-69
2022/05/17 04:22:07;;;;;;;1999.90;999.90;;;15.10;99.90;;;;;;4991145;28;20166;-70
2022/05/17 04:24:33;;;;;;;1999.90;999.90;;;15.20;99.90;;;;;;4990673;28;20412;-69
2022/05/17 04:26:58;;;;;;;1999.90;999.90;;;15.30;99.90;;;;;;4990793;28;20967;-70
2022/05/17 04:29:24;;;;;;;1999.90;999.90;;;15.30;99.90;;;;;;4990718;28;20171;-70
2022/05/17 04:31:49;;;;;;;1999.90;999.90;;;15.40;99.90;;;;;;4990462;28;20172;-70
2022/05/17 04:34:15;;;;;;;1999.90;999.90;;;15.40;99.90;;;;;;4990574;28;20735;-70
2022/05/17 04:36:41;;;;;;;1999.90;999.90;;;15.50;99.90;;;;;;4990771;28;20548;-70
2022/05/17 04:39:06;;;;;;;1999.90;999.90;;;15.50;99.90;;;;;;4990789;28;20173;-70
2022/05/17 04:41:32;;;;;;;1999.90;999.90;;;15.50;99.90;;;;;;4991028;28;20572;-70
2022/05/17 04:43:58;;;;;;;1999.90;999.90;;;15.50;99.90;;;;;;4990704;28;20197;-70
2022/05/17 04:46:23;;;;;;;1999.90;999.90;;;15.50;99.90;;;;;;4990516;28;20189;-70
2022/05/17 04:48:49;;;;;;;1999.90;999.90;;;15.50;99.90;;;;;;4990742;28;20549;-70
2022/05/17 04:51:15;;;;;;;1999.90;999.90;;;15.50;99.90;;;;;;4990650;28;20527;-70
2022/05/17 04:53:44;;;;;;;1999.90;999.90;;;15.60;99.90;;;;;;4990705;28;20210;-70
2022/05/17 04:56:11;;;;;;;1999.90;999.90;;;15.70;99.90;;;;;;4990451;28;20199;-70
2022/05/17 04:58:37;;;;;;;1999.90;999.90;;;15.70;99.90;;;;;;4990470;28;20398;-70
2022/05/17 05:01:04;;;;;;;1999.90;999.90;;;15.70;99.90;;;;;;4990349;28;20405;-69
2022/05/17 05:03:30;;;;;;;1999.90;999.90;;;15.80;99.90;;;;;;4990596;28;20434;-69
2022/05/17 05:05:55;;;;;;;1999.90;999.90;;;15.80;99.90;;;;;;4990150;28;20423;-69
2022/05/17 05:08:21;;;;;;;1999.90;999.90;;;15.90;99.90;;;;;;4990302;28;20508;-69
2022/05/17 05:10:47;;;;;;;1999.90;999.90;;;15.90;99.90;;;;;;4990656;28;20185;-70
2022/05/17 05:13:21;;;;;;;1999.90;999.90;;;16.00;99.90;;;;;;4990376;28;20410;-68
2022/05/17 05:15:47;;;;;;;1999.90;999.90;;;16.00;99.90;;;;;;4990113;28;20262;-69
2022/05/17 05:18:14;;;;;;;1999.90;999.90;;;16.10;99.90;;;;;;4990628;28;21017;-70
2022/05/17 05:20:39;;;;;;;1999.90;999.90;;;16.10;99.90;;;;;;4990297;28;20183;-71
2022/05/17 05:23:06;;;;;;;1999.90;999.90;;;16.20;99.90;;;;;;4990307;28;20875;-71
2022/05/17 05:25:32;;;;;;;1999.90;999.90;;;16.30;99.90;;;;;;4989823;28;20256;-70
2022/05/17 05:27:58;;;;;;;1999.90;999.90;;;16.30;99.90;;;;;;4990111;28;20561;-71
2022/05/17 05:30:23;;;;;;;1999.90;999.90;;;16.30;99.90;;;;;;4990135;28;20173;-70
2022/05/17 05:32:49;;;;;;;1999.90;999.90;;;16.40;99.90;;;;;;4990051;28;20503;-70
2022/05/17 05:35:17;;;;;;;1999.90;999.90;;;16.50;99.90;;;;;;4989702;28;20411;-69
2022/05/17 05:37:43;;;;;;;1999.90;999.90;;;16.50;99.90;;;;;;4989954;28;20690;-70
2022/05/17 05:40:11;;;;;;;1999.90;999.90;;;16.60;99.90;;;;;;4990046;28;20411;-70
2022/05/17 05:42:39;;;;;;;1999.90;999.90;;;16.70;99.90;;;;;;4989998;28;20183;-70
2022/05/17 05:45:05;;;;;;;1999.90;999.90;;;16.70;99.90;;;;;;4989658;28;20410;-70
2022/05/17 05:47:31;;;;;;;1999.90;999.90;;;16.70;99.90;;;;;;4989625;28;20549;-70
2022/05/17 05:49:56;;;;;;;1999.90;999.90;;;16.80;99.90;;;;;;4989854;28;20976;-70
2022/05/17 05:52:23;;;;;;;1999.90;999.90;;;16.90;99.90;;;;;;4989801;28;20650;-70
2022/05/17 05:54:48;;;;;;;1999.90;999.90;;;17.00;99.90;;;;;;4989552;28;20178;-70
2022/05/17 05:57:14;;;;;;;1999.90;999.90;;;17.10;99.90;;;;;;4989863;28;20989;-69
2022/05/17 05:59:40;;;;;;;1999.90;999.90;;;17.30;99.90;;;;;;4989866;28;20234;-70
2022/05/17 06:02:06;;;;;;;1999.90;999.90;;;17.40;99.90;;;;;;4989769;28;20170;-70
2022/05/17 06:04:32;;;;;;;1999.90;999.90;;;17.50;99.90;;;;;;4989586;28;20420;-70
2022/05/17 06:06:58;;;;;;;1999.90;999.90;;;17.60;99.90;;;;;;4989732;28;20463;-70
2022/05/17 06:09:25;;;;;;;1999.90;999.90;;;17.70;99.90;;;;;;4989849;28;20937;-70
2022/05/17 06:11:51;;;;;;;1999.90;999.90;;;17.80;99.90;;;;;;4989903;28;20178;-69
2022/05/17 06:14:16;;;;;;;1999.90;999.90;;;17.90;99.90;;;;;;4989445;28;20793;-68
2022/05/17 06:16:42;;;;;;;1999.90;999.90;;;18.00;99.90;;;;;;4989380;28;20206;-70
2022/05/17 06:19:08;;;;;;;1999.90;999.90;;;18.10;99.90;;;;;;4989622;28;20173;-71
2022/05/17 06:21:34;;;;;;;1999.90;999.90;;;18.30;99.90;;;;;;4989490;28;20202;-70
2022/05/17 06:23:59;;;;;;;1999.90;999.90;;;18.30;99.90;;;;;;4989301;28;20175;-69
2022/05/17 06:26:25;;;;;;;1999.90;999.90;;;18.40;99.90;;;;;;4989286;28;20428;-69
2022/05/17 06:28:50;;;;;;;1999.90;999.90;;;18.40;99.90;;;;;;4989446;28;20204;-69
2022/05/17 06:31:16;;;;;;;1999.90;999.90;;;18.50;99.90;;;;;;4989377;28;20190;-69
2022/05/17 06:33:42;;;;;;;1999.90;999.90;;;18.50;99.90;;;;;;4989317;28;20170;-70
2022/05/17 06:36:07;;;;;;;1999.90;999.90;;;18.50;99.90;;;;;;4989042;28;20253;-70
2022/05/17 06:38:33;;;;;;;1999.90;999.90;;;18.40;99.90;;;;;;4989197;28;20204;-70
2022/05/17 06:40:59;;;;;;;1999.90;999.90;;;18.40;99.90;;;;;;4989236;28;20422;-70
2022/05/17 06:43:26;;;;;;;1999.90;999.90;;;18.40;99.90;;;;;;4989339;28;20417;-70
2022/05/17 06:45:52;;;;;;;1999.90;999.90;;;18.40;99.90;;;;;;4988963;28;20277;-70
2022/05/17 06:48:19;;;;;;;1999.90;999.90;;;18.50;99.90;;;;;;4989229;28;20456;-70
2022/05/17 06:50:45;;;;;;;1999.90;999.90;;;18.70;99.90;;;;;;4989159;28;20219;-70
2022/05/17 06:53:10;;;;;;;1999.90;999.90;;;18.80;99.90;;;;;;4989696;28;20419;-70
2022/05/17 06:55:37;;;;;;;1999.90;999.90;;;19.00;99.90;;;;;;4992132;28;20181;-70
2022/05/17 06:58:04;;;;;;;1999.90;999.90;;;19.20;99.90;;;;;;4992508;28;20229;-70
2022/05/17 07:00:31;;;;;;;1999.90;999.90;;;19.30;99.90;;;;;;4992386;28;20417;-71
2022/05/17 07:02:58;;;;;;;1999.90;999.90;;;19.40;99.90;;;;;;4992192;28;20405;-70
2022/05/17 07:05:23;;;;;;;1999.90;999.90;;;19.50;99.90;;;;;;4992031;28;20409;-70
2022/05/17 07:07:49;;;;;;;1999.90;999.90;;;19.60;99.90;;;;;;4992238;28;20508;-70
2022/05/17 07:13:09;;;;;;;1999.90;999.90;;;19.90;99.90;;;;;;4992504;28;20177;-70
2022/05/17 07:15:41;;;;;;;1999.90;999.90;;;20.10;99.90;;;;;;4991689;28;20479;-70
2022/05/17 07:18:08;;;;;;;1999.90;999.90;;;20.40;99.90;;;;;;4992437;28;20413;-70
2022/05/17 07:20:34;;;;;;;1999.90;999.90;;;20.50;99.90;;;;;;4992213;28;20459;-70
2022/05/17 07:23:00;;;;;;;1999.90;999.90;;;20.60;99.90;;;;;;4992095;28;20901;-71
2022/05/17 07:25:26;;;;;;;1999.90;999.90;;;20.90;99.90;;;;;;4991722;28;20420;-70
2022/05/17 07:27:51;;;;;;;1999.90;999.90;;;21.10;99.90;;;;;;4992050;28;20553;-70
2022/05/17 07:30:17;;;;;;;1999.90;999.90;;;21.30;99.90;;;;;;4992003;28;20388;-71
2022/05/17 07:32:43;;;;;;;1999.90;999.90;;;21.40;99.90;;;;;;4991997;28;20553;-70
2022/05/17 07:35:08;;;;;;;1999.90;999.90;;;21.50;99.90;;;;;;4991645;28;20706;-71
2022/05/17 07:37:35;;;;;;;1999.90;999.90;;;21.50;99.90;;;;;;4991810;28;20635;-70
2022/05/17 07:40:01;;;;;;;1999.90;999.90;;;21.60;99.90;;;;;;4991890;28;20273;-71
2022/05/17 07:42:27;;;;;;;1999.90;999.90;;;21.60;99.90;;;;;;4991633;28;20481;-69
2022/05/17 07:44:52;;;;;;;1999.90;999.90;;;21.80;99.90;;;;;;4991289;28;20417;-70
2022/05/17 07:47:18;;;;;;;1999.90;999.90;;;21.90;99.90;;;;;;4991477;28;21015;-70
2022/05/17 07:49:44;;;;;;;1999.90;999.90;;;22.00;99.90;;;;;;4991559;28;20173;-69
2022/05/17 07:52:10;;;;;;;1999.90;999.90;;;22.00;99.90;;;;;;4991600;28;20178;-69
2022/05/17 07:54:37;;;;;;;1999.90;999.90;;;22.00;99.90;;;;;;4991174;28;20167;-69
2022/05/17 07:57:07;;;;;;;1999.90;999.90;;;22.10;99.90;;;;;;4988997;28;20438;-71
2022/05/17 07:59:33;;;;;;;1999.90;999.90;;;22.10;99.90;;;;;;4986972;28;20419;-71
2022/05/17 08:01:59;;;;;;;1999.90;999.90;;;22.00;99.90;;;;;;4987361;28;20416;-71
2022/05/17 08:04:25;;;;;;;1999.90;999.90;;;22.10;99.90;;;;;;4966935;28;20466;-68
2022/05/17 08:06:51;;;;;;;1999.90;999.90;;;22.20;99.90;;;;;;4967230;28;20528;-70
2022/05/17 08:09:17;;;;;;;1999.90;999.90;;;22.30;99.90;;;;;;4967992;28;20419;-71
2022/05/17 08:11:44;;;;;;;1999.90;999.90;;;22.40;99.90;;;;;;4967119;28;20430;-71
2022/05/17 08:14:10;;;;;;;1999.90;999.90;;;22.50;99.90;;;;;;4967002;28;20410;-68
2022/05/17 08:16:36;;;;;;;1999.90;999.90;;;22.50;99.90;;;;;;4967657;28;20488;-71
2022/05/17 08:19:01;;;;;;;1999.90;999.90;;;22.60;99.90;;;;;;4967917;28;20411;-70
2022/05/17 08:21:27;;;;;;;1999.90;999.90;;;22.60;99.90;;;;;;4967775;28;20181;-70
2022/05/17 08:23:52;;;;;;;1999.90;999.90;;;22.70;99.90;;;;;;4967513;28;20214;-70
2022/05/17 08:29:02;;;;;;;1999.90;999.90;;;22.80;99.90;;;;;;4966722;28;20307;-70
2022/05/17 08:31:27;;;;;;;1999.90;999.90;;;22.90;99.90;;;;;;4971369;28;20915;-70
2022/05/17 08:33:53;;;;;;;1999.90;999.90;;;23.10;99.90;;;;;;4971820;28;20223;-70
2022/05/17 08:36:19;;;;;;;1999.90;999.90;;;23.20;99.90;;;;;;4971700;28;20252;-70
2022/05/17 08:38:48;;;;;;;1999.90;999.90;;;23.40;99.90;;;;;;4971814;28;20182;-70
2022/05/17 08:41:37;;;;;;;1999.90;999.90;;;23.50;99.90;;;;;;4971973;28;20242;-70
2022/05/17 08:44:14;;;;;;;1999.90;999.90;;;23.60;99.90;;;;;;4971702;28;20463;-70
2022/05/17 08:46:48;;;;;;;1999.90;999.90;;;23.60;99.90;;;;;;4971391;28;20400;-70
2022/05/17 08:49:22;;;;;;;1999.90;999.90;;;23.80;99.90;;;;;;4971272;28;20432;-69
2022/05/17 08:51:51;;;;;;;1999.90;999.90;;;23.90;99.90;;;;;;4971455;28;20396;-71
2022/05/17 08:54:25;;;;;;;1999.90;999.90;;;24.10;99.90;;;;;;4971345;28;20471;-70
2022/05/17 08:57:03;;;;;;;1999.90;999.90;;;24.30;99.90;;;;;;4971127;28;20436;-70
2022/05/17 08:59:33;;;;;;;1999.90;999.90;;;24.40;99.90;;;;;;4971120;28;20395;-69
2022/05/17 09:02:06;;;;;;;1999.90;999.90;;;24.50;99.90;;;;;;4971150;28;20447;-69
2022/05/17 09:05:02;;;;;;;1999.90;999.90;;;24.70;99.90;;;;;;4970920;28;20400;-70
2022/05/17 09:07:36;;;;;;;1999.90;999.90;;;24.80;99.90;;;;;;4968943;22;20465;-69
2022/05/17 09:10:02;;;;;;;1999.90;999.90;;;24.90;99.90;;;;;;4951655;29;20427;-70
2022/05/17 09:12:58;;;;;;;1999.90;999.90;;;24.90;99.90;;;;;;4951692;29;20813;-70
2022/05/17 09:15:24;;;;;;;1999.90;999.90;;;24.90;99.90;;;;;;4951287;29;20174;-70
2022/05/17 09:17:50;;;;;;;1999.90;999.90;;;24.90;99.90;;;;;;4951234;29;20410;-70
2022/05/17 09:20:21;;;;;;;1999.90;999.90;;;24.90;99.90;;;;;;4951487;29;20651;-69
2022/05/17 09:22:47;;;;;;;1999.90;999.90;;;25.10;99.90;;;;;;4951406;29;20172;-70
2022/05/17 09:25:16;;;;;;;1999.90;999.90;;;25.10;99.90;;;;;;4951261;29;20792;-70
2022/05/17 09:27:45;;;;;;;1999.90;999.90;;;25.20;99.90;;;;;;4951296;29;20553;-70
2022/05/17 09:30:25;;;;;;;1999.90;999.90;;;25.20;99.90;;;;;;4951443;29;20415;-70
2022/05/17 09:33:06;;;;;;;1999.90;999.90;;;25.30;99.90;;;;;;4949968;29;20934;-70
2022/05/17 09:35:42;;;;;;;1999.90;999.90;;;25.50;99.90;;;;;;4946155;29;20377;-68
2022/05/17 09:38:08;;;;;;;1999.90;999.90;;;25.60;99.90;;;;;;4950209;29;20410;-70
2022/05/17 09:40:40;;;;;;;1999.90;999.90;;;25.60;99.90;;;;;;4950483;29;20403;-70
2022/05/17 09:43:12;;;;;;;1999.90;999.90;;;25.60;99.90;;;;;;4950494;29;20422;-70
2022/05/17 09:45:50;;;;;;;1999.90;999.90;;;25.80;99.90;;;;;;4950144;29;20410;-69
2022/05/17 09:54:09;;;;;;;1999.90;999.90;;;26.10;99.90;;;;;;4950173;29;20828;-71
2022/05/17 09:56:34;;;;;;;1999.90;999.90;;;26.30;99.90;;;;;;4932423;29;20431;-71
2022/05/17 09:59:00;;;;;;;1999.90;999.90;;;26.40;99.90;;;;;;4950407;29;20209;-71
2022/05/17 10:01:37;;;;;;;1999.90;999.90;;;26.50;99.90;;;;;;4954743;29;20240;-69
2022/05/17 10:04:05;;;;;;;1999.90;999.90;;;26.70;99.90;;;;;;4949619;29;20171;-70
2022/05/17 10:06:56;;;;;;;1999.90;999.90;;;27.00;99.90;;;;;;4949780;29;20450;-69
2022/05/17 10:09:32;;;;;;;1999.90;999.90;;;27.30;99.90;;;;;;4950360;28;20422;-69
2022/05/17 10:12:19;;;;;;;1999.90;999.90;;;27.40;99.90;;;;;;4949714;29;20899;-68
2022/05/17 10:14:52;;;;;;;1999.90;999.90;;;27.70;99.90;;;;;;4949676;29;20497;-70
2022/05/17 10:17:30;;;;;;;1999.90;999.90;;;27.60;99.90;;;;;;4950101;29;20490;-69
2022/05/17 10:20:01;;;;;;;1999.90;999.90;;;27.60;99.90;;;;;;4949961;29;20473;-69
2022/05/17 10:22:57;;;;;;;1999.90;999.90;;;27.60;99.90;;;;;;4950077;29;20753;-70
2022/05/17 10:25:58;;;;;;;1999.90;999.90;;;27.50;99.90;;;;;;4949053;29;20425;-69
2022/05/17 10:28:43;;;;;;;1999.90;999.90;;;27.50;98.70;;;;;;4950681;28;20964;-67
2022/05/17 10:31:20;;;;;;;1999.90;999.90;;;27.30;98.80;;;;;;4953282;29;20381;-66
2022/05/17 10:34:07;;;;;;;1999.90;999.90;;;27.40;99.90;;;;;;4952830;29;20483;-68
2022/05/17 10:36:58;;;;;;;1999.90;999.90;;;27.50;98.70;;;;;;4953013;29;20418;-68
2022/05/17 10:39:47;;;;;;;1999.90;999.90;;;27.40;96.90;;;;;;4953180;29;20512;-68
2022/05/17 10:42:13;;;;;;;1999.90;999.90;;;27.50;96.70;;;;;;4955118;28;20397;-68
2022/05/17 10:44:45;;;;;;;1999.90;999.90;;;27.60;97.50;;;;;;4952768;29;20370;-68
2022/05/17 10:47:34;;;;;;;1999.90;999.90;;;27.50;95.00;;;;;;4952576;29;20474;-68
2022/05/17 10:50:23;;;;;;;1999.90;999.90;;;27.50;95.00;;;;;;4953096;29;20452;-68
2022/05/17 10:52:57;;;;;;;1999.90;999.90;;;27.60;95.10;;;;;;4952936;29;20493;-68
2022/05/17 10:55:43;;;;;;;1999.90;999.90;;;27.70;95.10;;;;;;4952082;29;20425;-68
2022/05/17 10:58:43;;;;;;;1999.90;999.90;;;27.80;94.00;;;;;;4952969;29;20407;-68
2022/05/17 11:01:32;;;;;;;1999.90;999.90;;;27.90;93.80;;;;;;4952998;29;20907;-68
2022/05/17 11:04:03;;;;;;;1999.90;999.90;;;28.00;94.30;;;;;;4952318;28;20510;-68
2022/05/17 11:06:40;;;;;;;1999.90;999.90;;;27.90;91.20;;;;;;4952384;29;20450;-68
2022/05/17 11:09:23;;;;;;;1999.90;999.90;;;27.90;92.00;;;;;;4952832;29;20414;-68
2022/05/17 11:11:54;;;;;;;1999.90;999.90;;;28.00;91.40;;;;;;4952357;29;20464;-68
2022/05/17 11:14:38;;;;;;;1999.90;999.90;;;28.30;91.80;;;;;;4952348;29;20406;-68
2022/05/17 11:17:09;;;;;;;1999.90;999.90;;;28.40;91.10;;;;;;4952015;29;20426;-68
2022/05/17 11:19:46;;;;;;;1999.90;999.90;;;28.60;90.00;;;;;;4952741;29;20413;-68
2022/05/17 11:22:46;;;;;;;1999.90;999.90;;;28.60;86.20;;;;;;4952669;29;20810;-68
2022/05/17 11:25:36;;;;;;;1999.90;999.90;;;28.60;86.50;;;;;;4951723;29;20903;-68
2022/05/17 11:28:16;;;;;;;1999.90;999.90;;;28.70;85.20;;;;;;4952527;29;20469;-68
2022/05/17 11:31:00;;;;;;;1999.90;999.90;;;28.80;80.10;;;;;;4952733;29;20399;-68
2022/05/17 11:33:28;;;;;;;1999.90;999.90;;;28.70;79.70;;;;;;4952227;29;20501;-68
2022/05/17 11:36:01;;;;;;;1999.90;999.90;;;28.60;71.90;;;;;;4951680;29;20423;-67
2022/05/17 11:38:36;;;;;;;1999.90;999.90;;;28.50;64.30;;;;;;4952302;29;20411;-67
2022/05/17 11:41:18;;;;;;;1999.90;999.90;;;28.30;61.30;;;;;;4951915;28;20417;-67
2022/05/17 11:43:46;;;;;;;1999.90;999.90;;;28.00;57.80;;;;;;4952316;29;20902;-68
2022/05/17 11:46:34;;;;;;;1999.90;999.90;;;27.90;58.20;;;;;;4951622;29;20439;-68
2022/05/17 11:49:12;;;;;;;1999.90;999.90;;;27.70;61.80;;;;;;4952394;29;20815;-68
2022/05/17 11:52:00;;;;;;;1999.90;999.90;;;27.70;60.60;;;;;;4952198;29;20514;-68
2022/05/17 11:54:46;;;;;;;1999.90;999.90;;;27.60;64.80;;;;;;4951215;29;20416;-68
2022/05/17 11:57:37;;;;;;;1999.90;999.90;;;27.70;66.10;;;;;;4952050;29;20432;-68
2022/05/17 12:00:10;;;;;;;1999.90;999.90;;;28.10;79.90;;;;;;4951914;29;20401;-68
2022/05/17 12:02:58;;;;;;;1999.90;999.90;;;29.10;57.90;;;;;;4951687;29;20410;-68
2022/05/17 12:05:43;;;;;;;1999.90;999.90;;;29.80;53.90;;;;;;4951413;29;20476;-68
2022/05/17 12:08:27;;;;;;;1999.90;999.90;;;30.30;50.50;;;;;;4951932;29;20465;-68
2022/05/17 12:11:25;;;;;;;1999.90;999.90;;;31.00;46.10;;;;;;4951387;29;20467;-68
2022/05/17 12:13:59;;;;;;;1999.90;999.90;;;31.10;45.40;;;;;;4952745;28;20509;-68
2022/05/17 12:16:30;;;;;;;1999.90;999.90;;;30.70;42.70;;;;;;4950880;29;20982;-68
2022/05/17 12:19:06;;;;;;;1999.90;999.90;;;30.30;39.10;;;;;;4952062;29;20494;-69
2022/05/17 12:21:58;;;;;;;1999.90;999.90;;;30.40;39.60;;;;;;4952076;29;20406;-69
2022/05/17 12:24:40;;;;;;;1999.90;999.90;;;30.60;37.50;;;;;;4951223;29;20828;-68
2022/05/17 12:27:29;;;;;;;1999.90;999.90;;;30.50;37.00;;;;;;4951968;29;20671;-68
2022/05/17 12:33:03;;;;;;;1999.90;999.90;;;31.20;33.00;;;;;;4951563;29;20776;-68